createdAt,value
2023-05-25T00:02:25.936Z,18.27
2023-05-25T00:05:28.595Z,19.88
2023-05-25T00:08:30.693Z,19.83
2023-05-25T00:11:32.629Z,22.92
2023-05-25T00:14:34.361Z,24.05
2023-05-25T00:17:37.330Z,21.23
2023-05-25T00:20:39.645Z,22.40
2023-05-25T00:23:42.544Z,21.33
2023-05-25T00:26:44.260Z,25.73
2023-05-25T00:29:46.478Z,23.70
2023-05-25T00:32:49.437Z,21.92
2023-05-25T00:35:52.698Z,21.75
2023-05-25T00:38:54.792Z,21.90
2023-05-25T00:41:59.569Z,23.15
2023-05-25T00:45:01.566Z,21.50
2023-05-25T00:48:04.865Z,17.35
2023-05-25T00:51:07.545Z,21.67
2023-05-25T00:54:09.245Z,21.85
2023-05-25T00:57:15.094Z,25.75
2023-05-25T01:00:17.974Z,24.45
2023-05-25T01:03:23.298Z,22.58
2023-05-25T01:06:32.135Z,21.85
2023-05-25T01:09:38.497Z,23.77
2023-05-25T01:12:42.398Z,26.23
2023-05-25T01:15:47.130Z,21.35
2023-05-25T01:18:49.200Z,20.98
2023-05-25T01:21:51.024Z,26.63
2023-05-25T01:25:05.229Z,25.00
2023-05-25T01:28:11.545Z,22.80
2023-05-25T01:31:16.136Z,25.35
2023-05-25T01:34:19.499Z,20.50
2023-05-25T01:37:24.245Z,20.38
2023-05-25T01:40:26.937Z,25.83
2023-05-25T01:43:28.756Z,19.70
2023-05-25T01:46:38.799Z,21.40
2023-05-25T01:49:46.946Z,23.97
2023-05-25T01:52:54.955Z,19.65
2023-05-25T01:56:03.409Z,19.35
2023-05-25T01:59:11.226Z,20.98
2023-05-25T02:02:16.195Z,20.63
2023-05-25T02:05:20.660Z,17.63
2023-05-25T02:08:22.455Z,18.85
2023-05-25T02:11:24.701Z,21.48
2023-05-25T02:14:26.814Z,21.05
2023-05-25T02:17:30.404Z,19.38
2023-05-25T02:20:32.832Z,21.58
2023-05-25T02:23:34.690Z,21.80
2023-05-25T02:26:37.325Z,22.25
2023-05-25T02:29:39.443Z,18.88
2023-05-25T02:32:44.365Z,16.67
2023-05-25T02:35:47.483Z,23.73
2023-05-25T02:38:52.545Z,20.25
2023-05-25T02:41:54.737Z,22.98
2023-05-25T02:44:57.359Z,22.42
2023-05-25T02:47:59.539Z,21.23
2023-05-25T02:51:03.756Z,22.40
2023-05-25T02:54:06.062Z,23.48
2023-05-25T02:57:09.256Z,24.13
2023-05-25T03:00:12.553Z,22.55
2023-05-25T03:03:18.938Z,25.10
2023-05-25T03:06:27.273Z,21.85
2023-05-25T03:09:36.745Z,21.20
2023-05-25T03:12:39.542Z,23.05
2023-05-25T03:15:42.838Z,23.13
2023-05-25T03:18:45.805Z,23.08
2023-05-25T03:21:47.937Z,19.48
2023-05-25T03:24:50.314Z,23.92
2023-05-25T03:27:54.606Z,19.40
2023-05-25T03:30:57.999Z,21.73
2023-05-25T03:33:59.894Z,18.08
2023-05-25T03:37:02.253Z,21.88
2023-05-25T03:40:05.149Z,17.48
2023-05-25T03:43:08.710Z,23.55
2023-05-25T03:46:11.910Z,16.98
2023-05-25T03:49:14.351Z,23.00
2023-05-25T03:52:16.958Z,21.92
2023-05-25T03:55:19.812Z,21.90
2023-05-25T03:58:22.166Z,18.50
2023-05-25T04:01:26.608Z,17.33
2023-05-25T04:04:34.805Z,21.13
2023-05-25T04:07:37.370Z,19.50
2023-05-25T04:10:39.413Z,19.88
2023-05-25T04:13:41.700Z,18.77
2023-05-25T04:16:46.238Z,17.85
2023-05-25T04:19:50.057Z,16.83
2023-05-25T04:22:52.174Z,19.30
2023-05-25T04:25:54.695Z,17.88
2023-05-25T04:28:58.235Z,18.55
2023-05-25T04:32:09.711Z,20.75
2023-05-25T04:35:49.354Z,18.40
2023-05-25T04:38:55.002Z,16.45
2023-05-25T04:41:58.535Z,20.60
2023-05-25T04:45:00.860Z,17.40
2023-05-25T04:48:03.650Z,22.30
2023-05-25T04:51:06.725Z,22.75
2023-05-25T04:54:09.700Z,14.15
2023-05-25T04:57:12.021Z,14.40
2023-05-25T05:00:15.372Z,19.13
2023-05-25T05:03:18.620Z,18.00
2023-05-25T05:06:22.104Z,16.33
2023-05-25T05:09:24.663Z,19.20
2023-05-25T05:12:29.228Z,19.23
2023-05-25T05:15:33.603Z,18.50
2023-05-25T05:18:35.886Z,19.48
2023-05-25T05:21:37.736Z,22.33
2023-05-25T05:24:42.543Z,18.55
2023-05-25T05:27:50.095Z,17.05
2023-05-25T05:30:58.697Z,19.33
2023-05-25T05:34:01.145Z,20.08
2023-05-25T05:37:03.169Z,20.52
2023-05-25T05:40:05.714Z,19.02
2023-05-25T05:43:16.248Z,22.05
2023-05-25T05:46:18.341Z,22.52
2023-05-25T05:49:20.448Z,23.38
2023-05-25T05:52:28.739Z,26.35
2023-05-25T05:55:31.024Z,24.67
2023-05-25T05:58:33.243Z,23.20
2023-05-25T06:01:36.769Z,25.27
2023-05-25T06:04:39.179Z,21.45
2023-05-25T06:07:43.061Z,23.05
2023-05-25T06:10:45.294Z,24.45
2023-05-25T06:13:47.224Z,19.42
2023-05-25T06:16:51.272Z,21.38
2023-05-25T06:19:53.567Z,20.30
2023-05-25T06:22:55.470Z,19.05
2023-05-25T06:25:57.153Z,18.52
2023-05-25T06:28:59.351Z,18.65
2023-05-25T06:32:01.929Z,19.73
2023-05-25T06:35:04.802Z,21.08
2023-05-25T06:38:07.589Z,16.52
2023-05-25T06:41:13.223Z,21.55
2023-05-25T06:44:15.332Z,18.83
2023-05-25T06:47:21.859Z,22.85
2023-05-25T06:50:24.153Z,18.67
2023-05-25T06:53:26.281Z,19.27
2023-05-25T06:56:28.104Z,23.52
2023-05-25T06:59:29.926Z,19.23
2023-05-25T07:02:33.166Z,24.55
2023-05-25T07:05:35.111Z,20.67
2023-05-25T07:08:37.423Z,18.98
2023-05-25T07:11:39.378Z,22.30
2023-05-25T07:14:41.429Z,21.52
2023-05-25T07:17:43.481Z,18.55
2023-05-25T07:20:45.849Z,19.00
2023-05-25T07:23:48.159Z,16.88
2023-05-25T07:26:50.541Z,16.25
2023-05-25T07:29:52.759Z,17.48
2023-05-25T07:32:54.766Z,16.95
2023-05-25T07:35:58.889Z,17.27
2023-05-25T07:39:01.561Z,13.18
2023-05-25T07:42:04.073Z,12.45
2023-05-25T07:45:06.987Z,14.85
2023-05-25T07:48:12.153Z,20.23
2023-05-25T07:51:14.016Z,13.90
2023-05-25T07:54:16.263Z,17.33
2023-05-25T07:57:18.723Z,15.57
2023-05-25T08:00:21.268Z,14.50
2023-05-25T08:03:31.814Z,16.48
2023-05-25T08:06:34.491Z,18.65
2023-05-25T08:09:36.950Z,13.05
2023-05-25T08:12:49.055Z,15.02
2023-05-25T08:15:52.458Z,14.95
2023-05-25T08:18:54.404Z,13.43
2023-05-25T08:21:57.701Z,16.40
2023-05-25T08:25:00.295Z,14.10
2023-05-25T08:28:02.343Z,13.85
2023-05-25T08:31:05.246Z,15.98
2023-05-25T08:34:07.428Z,15.48
2023-05-25T08:37:09.505Z,19.02
2023-05-25T08:40:17.072Z,16.95
2023-05-25T08:43:19.106Z,19.17
2023-05-25T08:46:36.992Z,16.73
2023-05-25T08:49:41.224Z,15.35
2023-05-25T08:52:47.558Z,18.75
2023-05-25T08:55:52.016Z,13.93
2023-05-25T08:59:09.529Z,14.35
2023-05-25T09:02:21.375Z,15.38
2023-05-25T09:05:24.304Z,16.15
2023-05-25T09:08:27.385Z,15.23
2023-05-25T09:11:38.572Z,15.32
2023-05-25T09:14:48.077Z,13.75
2023-05-25T09:17:55.852Z,14.27
2023-05-25T09:20:59.390Z,15.57
2023-05-25T09:24:02.071Z,15.35
2023-05-25T09:27:05.751Z,16.65
2023-05-25T09:30:08.874Z,17.42
2023-05-25T09:33:17.640Z,17.05
2023-05-25T09:36:22.166Z,17.05
2023-05-25T09:39:25.979Z,10.48
2023-05-25T09:42:28.045Z,13.10
2023-05-25T09:45:30.825Z,14.15
2023-05-25T09:48:33.036Z,15.32
2023-05-25T09:51:37.285Z,13.75
2023-05-25T09:54:39.644Z,14.20
2023-05-25T09:57:43.299Z,12.82
2023-05-25T10:00:46.709Z,13.50
2023-05-25T10:04:02.791Z,13.90
2023-05-25T10:07:11.428Z,15.10
2023-05-25T10:10:16.849Z,9.77
2023-05-25T10:13:27.663Z,13.13
2023-05-25T10:16:33.517Z,11.50
2023-05-25T10:19:54.029Z,16.60
2023-05-25T10:23:15.138Z,11.55
2023-05-25T10:26:23.962Z,13.90
2023-05-25T10:29:29.635Z,13.05
2023-05-25T10:32:32.897Z,10.88
2023-05-25T10:35:50.810Z,12.45
2023-05-25T10:38:58.255Z,9.93
2023-05-25T10:42:02.230Z,18.05
2023-05-25T10:45:07.126Z,12.68
2023-05-25T10:48:10.839Z,10.55
2023-05-25T10:51:14.337Z,12.02
2023-05-25T10:54:16.186Z,12.13
2023-05-25T10:57:20.463Z,13.63
2023-05-25T11:00:22.697Z,10.95
2023-05-25T11:03:45.182Z,10.98
2023-05-25T11:06:50.625Z,9.82
2023-05-25T11:09:58.716Z,9.98
2023-05-25T11:13:24.985Z,11.43
2023-05-25T11:16:36.187Z,11.98
2023-05-25T11:19:59.390Z,11.63
2023-05-25T11:23:33.503Z,9.68
2023-05-25T11:26:47.191Z,8.15
2023-05-25T11:30:31.779Z,11.80
2023-05-25T11:33:42.198Z,7.88
2023-05-25T11:36:46.180Z,8.35
2023-05-25T11:40:26.619Z,8.00
2023-05-25T11:43:29.997Z,9.70
2023-05-25T11:46:57.308Z,6.63
2023-05-25T11:50:31.226Z,11.18
2023-05-25T11:53:45.326Z,8.98
2023-05-25T11:57:20.332Z,7.82
2023-05-25T12:00:43.905Z,8.57
2023-05-25T12:03:48.165Z,5.68
2023-05-25T12:06:50.096Z,5.63
2023-05-25T12:09:53.056Z,6.47
2023-05-25T12:12:58.626Z,7.15
2023-05-25T12:16:01.756Z,7.05
2023-05-25T12:19:04.485Z,7.30
2023-05-25T12:22:07.160Z,6.43
2023-05-25T12:25:11.568Z,7.88
2023-05-25T12:28:19.176Z,9.20
2023-05-25T12:31:26.131Z,6.57
2023-05-25T12:34:35.211Z,5.80
2023-05-25T12:37:37.625Z,5.35
2023-05-25T12:40:40.944Z,11.75
2023-05-25T12:43:46.734Z,8.95
2023-05-25T12:46:50.355Z,7.25
2023-05-25T12:50:10.156Z,8.88
2023-05-25T12:53:22.728Z,5.03
2023-05-25T12:56:26.614Z,7.00
2023-05-25T12:59:31.732Z,4.60
2023-05-25T13:02:35.382Z,7.03
2023-05-25T13:05:42.056Z,8.10
2023-05-25T13:08:44.417Z,6.55
2023-05-25T13:11:46.570Z,6.28
2023-05-25T13:14:50.936Z,7.30
2023-05-25T13:18:05.633Z,6.25
2023-05-25T13:21:11.461Z,6.50
2023-05-25T13:24:26.093Z,9.77
2023-05-25T13:27:28.950Z,7.78
2023-05-25T13:30:32.331Z,6.90
2023-05-25T13:33:34.825Z,8.43
2023-05-25T13:36:39.999Z,7.97
2023-05-25T13:39:43.968Z,6.68
2023-05-25T13:42:50.239Z,5.43
2023-05-25T13:45:52.650Z,9.18
2023-05-25T13:48:55.093Z,7.80
2023-05-25T13:52:00.688Z,5.20
2023-05-25T13:55:08.190Z,9.43
2023-05-25T13:58:10.518Z,8.32
2023-05-25T14:01:17.546Z,17.98
2023-05-25T14:04:20.070Z,7.50
2023-05-25T14:07:22.458Z,7.22
2023-05-25T14:10:25.195Z,5.72
2023-05-25T14:13:27.182Z,8.50
2023-05-25T14:16:29.291Z,5.88
2023-05-25T14:19:31.346Z,6.45
2023-05-25T14:22:36.446Z,7.50
2023-05-25T14:25:38.527Z,6.32
2023-05-25T14:28:40.713Z,8.68
2023-05-25T14:31:42.915Z,6.55
2023-05-25T14:34:45.765Z,6.00
2023-05-25T14:37:48.311Z,9.23
2023-05-25T14:40:50.574Z,10.95
2023-05-25T14:43:52.608Z,7.60
2023-05-25T14:46:55.333Z,9.68
2023-05-25T14:49:57.496Z,7.45
2023-05-25T14:52:59.613Z,8.55
2023-05-25T14:56:03.707Z,8.73
2023-05-25T14:59:06.546Z,10.30
2023-05-25T15:02:08.901Z,8.50
2023-05-25T15:05:10.818Z,8.57
2023-05-25T15:08:13.000Z,8.98
2023-05-25T15:11:20.933Z,7.85
2023-05-25T15:14:23.195Z,9.48
2023-05-25T15:17:25.306Z,10.50
2023-05-25T15:20:30.597Z,14.18
2023-05-25T15:23:35.498Z,9.07
2023-05-25T15:26:37.576Z,9.27
2023-05-25T15:29:39.721Z,11.27
2023-05-25T15:32:42.178Z,15.50
2023-05-25T15:35:44.517Z,9.80
2023-05-25T15:38:49.038Z,8.93
2023-05-25T15:41:51.747Z,9.30
2023-05-25T15:44:53.836Z,9.32
2023-05-25T15:47:55.992Z,9.73
2023-05-25T15:50:58.261Z,12.00
2023-05-25T15:54:00.165Z,12.18
2023-05-25T15:57:02.728Z,8.18
2023-05-25T16:00:05.618Z,7.90
2023-05-25T16:03:10.431Z,10.10
2023-05-25T16:06:12.842Z,8.93
2023-05-25T16:09:15.208Z,13.10
2023-05-25T16:12:17.372Z,11.55
2023-05-25T16:15:20.878Z,11.43
2023-05-25T16:18:24.267Z,10.63
2023-05-25T16:21:27.100Z,11.02
2023-05-25T16:24:29.247Z,13.55
2023-05-25T16:27:31.785Z,11.35
2023-05-25T16:30:33.955Z,13.30
2023-05-25T16:33:36.377Z,13.57
2023-05-25T16:36:38.470Z,11.73
2023-05-25T16:39:40.714Z,12.52
2023-05-25T16:42:42.900Z,13.98
2023-05-25T16:45:45.018Z,13.10
2023-05-25T16:48:47.512Z,13.85
2023-05-25T16:51:50.660Z,16.30
2023-05-25T16:54:52.615Z,13.55
2023-05-25T16:57:54.876Z,14.45
2023-05-25T17:00:56.919Z,13.02
2023-05-25T17:03:59.346Z,11.13
2023-05-25T17:07:01.411Z,16.17
2023-05-25T17:10:03.700Z,17.45
2023-05-25T17:13:05.720Z,14.77
2023-05-25T17:16:07.967Z,12.05
2023-05-25T17:19:11.201Z,13.23
2023-05-25T17:22:13.058Z,14.45
2023-05-25T17:25:15.074Z,14.55
2023-05-25T17:28:17.019Z,17.63
2023-05-25T17:31:19.529Z,16.73
2023-05-25T17:34:21.987Z,14.05
2023-05-25T17:37:26.455Z,13.82
2023-05-25T17:40:28.418Z,15.23
2023-05-25T17:43:32.111Z,17.60
2023-05-25T17:46:33.972Z,15.90
2023-05-25T17:49:36.030Z,17.17
2023-05-25T17:52:37.899Z,12.73
2023-05-25T17:55:40.132Z,18.35
2023-05-25T17:58:47.556Z,15.45
2023-05-25T18:01:50.360Z,16.13
2023-05-25T18:04:52.591Z,17.00
2023-05-25T18:07:54.952Z,16.05
2023-05-25T18:10:57.475Z,13.18
2023-05-25T18:14:05.824Z,18.58
2023-05-25T18:17:07.973Z,14.60
2023-05-25T18:20:11.496Z,12.77
2023-05-25T18:23:14.592Z,16.92
2023-05-25T18:26:16.597Z,23.88
2023-05-25T18:29:18.913Z,18.98
2023-05-25T18:32:21.072Z,16.30
2023-05-25T18:35:25.948Z,16.80
2023-05-25T18:38:27.831Z,20.40
2023-05-25T18:41:29.892Z,16.20
2023-05-25T18:44:35.539Z,13.15
2023-05-25T18:47:37.553Z,12.95
2023-05-25T18:50:41.893Z,18.88
2023-05-25T18:53:44.993Z,14.70
2023-05-25T18:56:47.432Z,19.67
2023-05-25T18:59:52.394Z,22.38
2023-05-25T19:02:54.411Z,20.55
2023-05-25T19:05:56.549Z,19.52
2023-05-25T19:08:58.409Z,23.40
2023-05-25T19:12:01.152Z,20.50
2023-05-25T19:15:04.560Z,20.65
2023-05-25T19:18:06.517Z,18.20
2023-05-25T19:21:08.581Z,21.23
2023-05-25T19:24:10.711Z,15.88
2023-05-25T19:27:13.009Z,21.83
2023-05-25T19:30:15.197Z,21.60
2023-05-25T19:33:22.756Z,21.40
2023-05-25T19:36:24.729Z,17.02
2023-05-25T19:39:26.512Z,18.98
2023-05-25T19:42:28.511Z,23.33
2023-05-25T19:45:30.733Z,20.33
2023-05-25T19:48:33.045Z,20.33
2023-05-25T19:51:34.930Z,20.95
2023-05-25T19:54:36.904Z,18.63
2023-05-25T19:57:38.679Z,22.25
2023-05-25T20:00:40.471Z,21.98
2023-05-25T20:03:44.462Z,26.08
2023-05-25T20:06:46.546Z,19.38
2023-05-25T20:09:48.336Z,18.30
2023-05-25T20:12:50.154Z,20.55
2023-05-25T20:15:52.092Z,22.38
2023-05-25T20:18:53.897Z,23.67
2023-05-25T20:21:55.877Z,19.52
2023-05-25T20:25:01.049Z,20.70
2023-05-25T20:28:03.375Z,19.95
2023-05-25T20:31:06.497Z,23.35
2023-05-25T20:34:08.420Z,19.25
2023-05-25T20:37:10.218Z,18.40
2023-05-25T20:40:12.180Z,20.27
2023-05-25T20:43:14.057Z,20.30
2023-05-25T20:46:15.928Z,17.83
2023-05-25T20:49:18.037Z,23.38
2023-05-25T20:52:21.237Z,20.17
2023-05-25T20:55:23.881Z,19.27
2023-05-25T20:58:25.707Z,17.38
2023-05-25T21:01:27.686Z,18.20
2023-05-25T21:04:31.668Z,18.60
2023-05-25T21:07:33.680Z,14.35
2023-05-25T21:10:35.789Z,27.85
2023-05-25T21:13:37.727Z,22.45
2023-05-25T21:16:39.928Z,19.45
2023-05-25T21:19:41.939Z,26.25
2023-05-25T21:22:43.732Z,17.95
2023-05-25T21:25:45.912Z,27.33
2023-05-25T21:28:48.036Z,22.17
2023-05-25T21:31:52.190Z,21.00
2023-05-25T21:34:54.926Z,20.15
2023-05-25T21:37:56.937Z,16.73
2023-05-25T21:41:01.386Z,22.67
2023-05-25T21:44:03.177Z,20.05
2023-05-25T21:47:05.432Z,21.00
2023-05-25T21:50:13.036Z,28.38
2023-05-25T21:53:14.831Z,17.92
2023-05-25T21:56:16.785Z,20.17
2023-05-25T21:59:18.616Z,19.92
2023-05-25T22:02:21.291Z,20.35
2023-05-25T22:05:23.525Z,21.83
2023-05-25T22:08:25.395Z,20.25
2023-05-25T22:11:27.691Z,15.13
2023-05-25T22:14:29.439Z,21.40
2023-05-25T22:17:31.106Z,21.45
2023-05-25T22:20:33.094Z,20.70
2023-05-25T22:23:35.348Z,20.65
2023-05-25T22:26:37.072Z,17.35
2023-05-25T22:29:45.005Z,21.10
2023-05-25T22:32:47.067Z,19.35
2023-05-25T22:35:51.221Z,17.10
2023-05-25T22:38:53.356Z,18.00
2023-05-25T22:41:54.957Z,17.92
2023-05-25T22:44:56.943Z,17.30
2023-05-25T22:47:58.937Z,16.77
2023-05-25T22:51:00.693Z,22.42
2023-05-25T22:54:02.799Z,18.05
2023-05-25T22:57:04.862Z,22.48
2023-05-25T23:00:07.661Z,18.80
2023-05-25T23:03:09.571Z,17.73
2023-05-25T23:06:14.581Z,23.13
2023-05-25T23:09:16.453Z,24.27
2023-05-25T23:12:18.824Z,15.00
2023-05-25T23:15:22.658Z,17.08
2023-05-25T23:18:24.589Z,17.38
2023-05-25T23:21:26.563Z,23.13
2023-05-25T23:24:30.615Z,18.02
2023-05-25T23:27:33.428Z,17.73
2023-05-25T23:30:35.765Z,21.85
2023-05-25T23:33:37.626Z,20.23
2023-05-25T23:36:40.744Z,15.70
2023-05-25T23:39:42.532Z,21.35
2023-05-25T23:42:45.167Z,24.75
2023-05-25T23:45:47.639Z,16.38
2023-05-25T23:48:49.824Z,30.05
2023-05-25T23:51:51.975Z,14.45
2023-05-25T23:54:54.152Z,20.10
2023-05-25T23:57:56.157Z,15.68
